Kirovohrad, Ukraine
Current Conditions -  °F | °C
As of 1:00 PM on Wednesday 26 Nov 2014 (Local Time) from UKDR Reporting Station
Overcast Overcast  
Wind Chill: 14°   Ceiling: 900
Heat Index: 25°   Visibility: 6mi
Dew Point: 25°   Wind: 11mph
Humidity: 100%   Direction: 20°NNE
Pressure: 30.3"   Gusts: NA
Location:  48.5°N, 32.26°E
Report Text: UKDR 261000Z 02005MPS 9999 OVC009 M04/M04 Q1026 3679//18 NOSIG
Loading
Personal Weather Stations






























Interactive Weather Map New forecast layout! Learn more

10-Day Weather Forecast

Advertisements
Track Severe Weather on mobile